Time;durP1;ratioP1;P1;durP2;ratioP2;P2;SDS_P1;SDS_P2;PMS_P1;PMS_P2;Temp;Humidity;BMP_temperature;BMP_pressure;BME280_temperature;BME280_humidity;BME280_pressure;Samples;Min_cycle;Max_cycle;Signal;HPM_P1;HPM_P2
2023/03/21 00:00:34;;;;;;;8.13;5.20;;;10.50;99.90;;;;;;4993889;28;20446;-86
2023/03/21 00:03:01;;;;;;;7.37;5.43;;;10.60;99.90;;;;;;4995617;28;20470;-86
2023/03/21 00:05:28;;;;;;;14.27;6.57;;;10.70;99.90;;;;;;4995340;28;20493;-86
2023/03/21 00:07:55;;;;;;;17.10;5.80;;;10.60;99.90;;;;;;4995248;28;20465;-87
2023/03/21 00:10:22;;;;;;;8.03;4.93;;;10.70;99.90;;;;;;4995569;28;20487;-86
2023/03/21 00:12:54;;;;;;;13.00;5.77;;;10.70;99.90;;;;;;4994884;28;20456;-86
2023/03/21 00:15:24;;;;;;;11.50;5.10;;;10.70;99.90;;;;;;4995162;28;20483;-86
2023/03/21 00:17:52;;;;;;;15.03;6.07;;;10.70;99.90;;;;;;4996245;28;20841;-85
2023/03/21 00:20:22;;;;;;;13.60;5.83;;;10.70;99.90;;;;;;5009979;28;20463;-87
2023/03/21 00:22:49;;;;;;;8.63;4.50;;;10.70;99.90;;;;;;4996619;28;20946;-87
2023/03/21 00:25:15;;;;;;;11.30;5.40;;;10.70;99.90;;;;;;4997053;28;20486;-86
2023/03/21 00:27:42;;;;;;;10.60;6.13;;;10.70;99.90;;;;;;4997031;28;20469;-87
2023/03/21 00:30:11;;;;;;;11.07;5.37;;;10.60;99.90;;;;;;4996625;28;20539;-86
2023/03/21 00:32:40;;;;;;;10.57;4.80;;;10.70;99.90;;;;;;4996704;28;20839;-87
2023/03/21 00:35:08;;;;;;;7.83;4.60;;;10.70;99.90;;;;;;4996131;28;20521;-87
2023/03/21 00:37:35;;;;;;;9.10;4.73;;;10.70;99.90;;;;;;4994485;28;20592;-86
2023/03/21 00:40:02;;;;;;;7.40;4.63;;;10.70;99.90;;;;;;4995396;28;20457;-86
2023/03/21 00:42:29;;;;;;;8.37;4.30;;;10.70;99.90;;;;;;4995253;28;20478;-86
2023/03/21 00:44:56;;;;;;;8.97;4.07;;;10.80;99.90;;;;;;4994895;28;20454;-87
2023/03/21 00:47:23;;;;;;;9.73;4.60;;;10.80;99.90;;;;;;4995494;28;20471;-86
2023/03/21 00:49:51;;;;;;;8.37;4.70;;;10.90;99.90;;;;;;4995369;28;20553;-86
2023/03/21 00:52:18;;;;;;;9.40;3.87;;;10.90;99.90;;;;;;4995932;28;20571;-86
2023/03/21 00:54:44;;;;;;;7.93;4.63;;;10.90;99.90;;;;;;4996007;28;20462;-86
2023/03/21 00:57:11;;;;;;;10.77;5.00;;;10.90;99.90;;;;;;4996862;28;20453;-86
2023/03/21 00:59:38;;;;;;;8.50;3.77;;;10.90;99.90;;;;;;4996454;28;20560;-86
2023/03/21 01:02:06;;;;;;;10.60;4.67;;;10.90;99.90;;;;;;4995435;28;20450;-86
2023/03/21 01:04:33;;;;;;;13.43;4.63;;;10.90;99.90;;;;;;4996869;28;20447;-86
2023/03/21 01:07:02;;;;;;;9.97;4.13;;;10.90;99.90;;;;;;4997077;28;20474;-86
2023/03/21 01:09:29;;;;;;;10.90;4.87;;;11.00;99.90;;;;;;4997643;28;20902;-86
2023/03/21 01:11:56;;;;;;;11.37;4.47;;;11.00;99.90;;;;;;4997999;28;21107;-87
2023/03/21 01:14:23;;;;;;;10.60;4.43;;;10.90;99.90;;;;;;4997988;28;20526;-86
2023/03/21 01:16:51;;;;;;;11.43;4.90;;;10.90;99.90;;;;;;4995125;28;20466;-86
2023/03/21 01:19:21;;;;;;;10.97;4.80;;;10.90;99.90;;;;;;4997843;28;20465;-86
2023/03/21 01:21:48;;;;;;;11.23;4.33;;;10.90;99.90;;;;;;4997973;28;20844;-86
2023/03/21 01:24:16;;;;;;;14.13;4.90;;;10.90;99.90;;;;;;4995738;28;20458;-86
2023/03/21 01:26:43;;;;;;;13.53;5.73;;;10.90;99.90;;;;;;4997058;28;20492;-86
2023/03/21 01:29:10;;;;;;;9.37;4.73;;;10.90;99.90;;;;;;4998636;28;20537;-85
2023/03/21 01:31:37;;;;;;;13.77;5.03;;;10.80;99.90;;;;;;4995546;28;20978;-86
2023/03/21 01:34:03;;;;;;;8.40;4.93;;;10.90;99.90;;;;;;4996016;28;20464;-86
2023/03/21 01:36:30;;;;;;;10.43;5.00;;;10.90;99.90;;;;;;4996951;28;20486;-86
2023/03/21 01:38:57;;;;;;;10.17;5.90;;;10.90;99.90;;;;;;4996612;28;20987;-87
2023/03/21 01:41:29;;;;;;;15.23;6.50;;;10.80;99.90;;;;;;4996617;28;20485;-86
2023/03/21 01:43:57;;;;;;;10.13;5.73;;;10.80;99.90;;;;;;4994928;28;20486;-87
2023/03/21 01:46:39;;;;;;;11.50;6.23;;;10.80;99.90;;;;;;4997218;28;20543;-86
2023/03/21 01:49:13;;;;;;;13.40;5.83;;;10.70;99.90;;;;;;4996431;28;20459;-87
2023/03/21 01:51:45;;;;;;;8.57;5.60;;;10.70;99.90;;;;;;4997132;28;20485;-86
2023/03/21 01:54:17;;;;;;;15.23;5.80;;;10.70;99.90;;;;;;4997864;28;20831;-86
2023/03/21 01:56:46;;;;;;;10.43;6.70;;;10.80;99.90;;;;;;4998867;28;20497;-87
2023/03/21 01:59:21;;;;;;;13.10;7.20;;;10.70;99.90;;;;;;5005866;28;20457;-86
2023/03/21 02:01:50;;;;;;;17.17;7.20;;;10.50;99.90;;;;;;4993158;28;20445;-86
2023/03/21 02:04:21;;;;;;;16.13;6.90;;;10.50;99.90;;;;;;4981161;28;20486;-86
2023/03/21 02:06:53;;;;;;;16.80;7.50;;;10.50;99.90;;;;;;5000590;28;20982;-84
2023/03/21 02:09:23;;;;;;;15.47;6.70;;;10.50;99.90;;;;;;5005313;28;20483;-85
2023/03/21 02:11:54;;;;;;;14.63;7.23;;;10.60;99.90;;;;;;4994447;28;20484;-86
2023/03/21 02:14:20;;;;;;;12.50;7.10;;;10.50;99.90;;;;;;4995855;28;20466;-86
2023/03/21 02:16:53;;;;;;;31.00;7.70;;;10.50;99.90;;;;;;4998384;28;20564;-85
2023/03/21 02:20:07;;;;;;;20.00;7.43;;;10.60;99.90;;;;;;4998017;28;20459;-86
2023/03/21 02:23:01;;;;;;;14.40;6.80;;;10.60;99.90;;;;;;4978703;28;20443;-85
2023/03/21 02:25:57;;;;;;;18.27;7.07;;;10.50;99.90;;;;;;4990384;28;20471;-86
2023/03/21 02:28:29;;;;;;;12.10;6.50;;;10.60;99.90;;;;;;4963001;28;20459;-86
2023/03/21 02:31:25;;;;;;;12.80;5.37;;;10.50;99.90;;;;;;4998206;28;20493;-86
2023/03/21 02:34:40;;;;;;;9.40;6.00;;;10.60;99.90;;;;;;4978998;28;20467;-86
2023/03/21 02:37:21;;;;;;;11.63;6.70;;;10.60;99.90;;;;;;4981426;28;20918;-86
2023/03/21 02:40:06;;;;;;;12.80;6.80;;;10.60;99.90;;;;;;4982696;28;20582;-86
2023/03/21 02:42:53;;;;;;;12.17;7.00;;;10.50;99.90;;;;;;4984824;28;20446;-86
2023/03/21 02:45:22;;;;;;;14.23;6.73;;;10.60;99.90;;;;;;4999842;28;20491;-86
2023/03/21 02:47:52;;;;;;;15.27;7.57;;;10.60;99.90;;;;;;4980611;28;20546;-86
2023/03/21 02:50:24;;;;;;;16.03;7.77;;;10.50;99.90;;;;;;4978940;28;20456;-86
2023/03/21 02:52:54;;;;;;;11.70;7.47;;;10.60;99.90;;;;;;5002349;28;20866;-86
2023/03/21 02:55:25;;;;;;;10.60;7.17;;;10.60;99.90;;;;;;5000394;28;20480;-85
2023/03/21 02:57:55;;;;;;;13.93;8.20;;;10.60;99.90;;;;;;5004521;28;20460;-85
2023/03/21 03:00:25;;;;;;;14.03;7.33;;;10.50;99.90;;;;;;5002537;28;20549;-84
2023/03/21 03:02:53;;;;;;;13.03;7.70;;;10.60;99.90;;;;;;5000765;28;20457;-86
2023/03/21 03:05:22;;;;;;;9.63;6.60;;;10.60;99.90;;;;;;5001643;28;20515;-85
2023/03/21 03:08:13;;;;;;;11.63;6.73;;;10.60;99.90;;;;;;5000994;28;21002;-86
2023/03/21 03:10:52;;;;;;;20.33;7.63;;;10.60;99.90;;;;;;4997145;28;20459;-86
2023/03/21 03:13:38;;;;;;;7.23;6.53;;;10.40;99.90;;;;;;4998002;28;20434;-86
2023/03/21 03:16:14;;;;;;;13.50;7.53;;;10.50;99.90;;;;;;4996546;28;20579;-86
2023/03/21 03:18:48;;;;;;;15.30;7.83;;;10.40;99.90;;;;;;4996858;28;20465;-86
2023/03/21 03:21:20;;;;;;;14.37;8.20;;;10.40;99.90;;;;;;4998894;28;20468;-86
2023/03/21 03:23:51;;;;;;;10.17;7.43;;;10.40;99.90;;;;;;5000677;28;20509;-85
2023/03/21 03:26:23;;;;;;;14.07;7.27;;;10.40;99.90;;;;;;4999118;28;20478;-86
2023/03/21 03:28:53;;;;;;;18.20;9.23;;;10.50;99.90;;;;;;4998792;28;20469;-86
2023/03/21 03:31:28;;;;;;;14.70;8.77;;;10.50;99.90;;;;;;4997156;28;20485;-86
2023/03/21 03:33:59;;;;;;;10.63;7.03;;;10.50;99.90;;;;;;4998540;28;20458;-87
2023/03/21 03:36:30;;;;;;;23.87;8.37;;;10.50;99.90;;;;;;4998870;28;20561;-86
2023/03/21 03:39:00;;;;;;;18.23;8.53;;;10.60;99.90;;;;;;4997777;28;20462;-86
2023/03/21 03:41:28;;;;;;;12.70;7.67;;;10.50;99.90;;;;;;4996534;28;20458;-86
2023/03/21 03:43:59;;;;;;;14.90;7.53;;;10.40;99.90;;;;;;4997283;28;20457;-87
2023/03/21 03:46:32;;;;;;;13.70;7.27;;;10.40;99.90;;;;;;4996986;28;20481;-86
2023/03/21 03:49:04;;;;;;;9.87;7.63;;;10.40;99.90;;;;;;4996451;28;20455;-85
2023/03/21 03:51:37;;;;;;;13.57;8.00;;;10.50;99.90;;;;;;4996079;28;20485;-86
2023/03/21 03:54:11;;;;;;;12.73;7.10;;;10.40;99.90;;;;;;4996616;28;20541;-86
2023/03/21 03:56:38;;;;;;;13.80;7.57;;;10.40;99.90;;;;;;5005721;28;20554;-86
2023/03/21 03:59:06;;;;;;;19.33;8.00;;;10.40;99.90;;;;;;5007240;28;20461;-85
2023/03/21 04:01:34;;;;;;;15.23;8.17;;;10.40;99.90;;;;;;4999554;28;20949;-87
2023/03/21 04:04:01;;;;;;;12.70;6.47;;;10.40;99.90;;;;;;4998647;28;20550;-86
2023/03/21 04:06:28;;;;;;;11.50;7.30;;;10.50;99.90;;;;;;4998347;28;20483;-86
2023/03/21 04:08:55;;;;;;;12.50;8.00;;;10.50;99.90;;;;;;4998312;28;20461;-86
2023/03/21 04:11:24;;;;;;;16.93;7.60;;;10.50;99.90;;;;;;4997245;28;20462;-86
2023/03/21 04:13:51;;;;;;;12.00;7.60;;;10.40;99.90;;;;;;4997164;28;21199;-86
2023/03/21 04:16:18;;;;;;;9.13;7.37;;;10.50;99.90;;;;;;4996123;28;20506;-86
2023/03/21 04:18:45;;;;;;;14.03;8.63;;;10.40;99.90;;;;;;4995873;28;20468;-86
2023/03/21 04:21:13;;;;;;;14.20;7.00;;;10.40;99.90;;;;;;4995957;28;20528;-86
2023/03/21 04:23:41;;;;;;;11.60;7.03;;;10.20;99.90;;;;;;4995814;28;20466;-86
2023/03/21 04:26:08;;;;;;;13.53;7.00;;;10.20;99.90;;;;;;4995747;28;20519;-87
2023/03/21 04:28:36;;;;;;;12.73;8.03;;;10.20;99.90;;;;;;4995805;28;20496;-86
2023/03/21 04:31:06;;;;;;;13.90;6.33;;;10.20;99.90;;;;;;4995811;28;20454;-86
2023/03/21 04:33:37;;;;;;;12.27;6.33;;;10.20;99.90;;;;;;4996439;28;20486;-86
2023/03/21 04:36:05;;;;;;;13.83;7.33;;;10.20;99.90;;;;;;4996425;28;20482;-87
2023/03/21 04:38:33;;;;;;;12.17;6.73;;;10.30;99.90;;;;;;4998055;28;20894;-86
2023/03/21 04:41:00;;;;;;;12.37;7.40;;;10.20;99.90;;;;;;4995412;28;20533;-86
2023/03/21 04:43:28;;;;;;;7.90;6.70;;;10.20;99.90;;;;;;4995739;28;20458;-86
2023/03/21 04:45:56;;;;;;;15.10;7.17;;;10.20;99.90;;;;;;4995747;28;20905;-86
2023/03/21 04:48:24;;;;;;;12.20;7.50;;;10.30;99.90;;;;;;4996675;28;20468;-85
2023/03/21 04:50:51;;;;;;;12.63;7.10;;;10.20;99.90;;;;;;4995817;28;20512;-86
2023/03/21 04:53:18;;;;;;;14.43;7.37;;;10.30;99.90;;;;;;4997556;28;20493;-86
2023/03/21 04:55:45;;;;;;;10.93;6.97;;;10.30;99.90;;;;;;5034018;23;20540;-84
2023/03/21 04:58:12;;;;;;;16.00;7.23;;;10.40;99.90;;;;;;4995220;28;20965;-85
2023/03/21 05:00:39;;;;;;;14.97;8.30;;;10.40;99.90;;;;;;4989479;28;20458;-87
2023/03/21 05:03:08;;;;;;;13.53;8.10;;;10.50;99.90;;;;;;4995777;28;20473;-86
2023/03/21 05:05:36;;;;;;;13.43;7.00;;;10.50;99.90;;;;;;4986069;28;20536;-85
2023/03/21 05:08:04;;;;;;;14.67;8.10;;;10.40;99.90;;;;;;4975846;28;20470;-87
2023/03/21 05:10:31;;;;;;;15.37;7.30;;;10.50;99.90;;;;;;4974220;28;20484;-84
2023/03/21 05:12:57;;;;;;;13.47;7.17;;;10.50;99.90;;;;;;4976630;28;20582;-85
2023/03/21 05:15:24;;;;;;;13.63;7.87;;;10.60;99.90;;;;;;4967606;28;21046;-82
2023/03/21 05:17:51;;;;;;;18.00;7.47;;;10.60;99.90;;;;;;4971019;28;20468;-82
2023/03/21 05:20:19;;;;;;;20.70;9.93;;;10.60;99.90;;;;;;4974220;28;20458;-83
2023/03/21 05:22:50;;;;;;;11.80;7.43;;;10.50;99.90;;;;;;4969386;28;20445;-82
2023/03/21 05:25:32;;;;;;;13.07;6.80;;;10.50;99.90;;;;;;4973836;28;20473;-83
2023/03/21 05:28:00;;;;;;;13.67;7.90;;;10.60;99.90;;;;;;4975974;28;20515;-83
2023/03/21 05:30:29;;;;;;;12.80;6.97;;;10.70;99.90;;;;;;4976515;28;20517;-83
2023/03/21 05:32:56;;;;;;;13.00;6.67;;;10.70;99.90;;;;;;4975798;28;20489;-84
2023/03/21 05:35:24;;;;;;;15.27;7.00;;;10.60;99.90;;;;;;4975752;28;20485;-82
2023/03/21 05:37:51;;;;;;;18.43;7.47;;;10.70;99.90;;;;;;4975202;28;20836;-80
2023/03/21 05:40:18;;;;;;;10.77;7.07;;;10.70;99.90;;;;;;4966118;28;20464;-82
2023/03/21 05:42:46;;;;;;;11.70;7.60;;;10.70;99.90;;;;;;4975586;28;20953;-79
2023/03/21 05:45:13;;;;;;;10.00;6.47;;;10.70;99.90;;;;;;4957507;28;20543;-80
2023/03/21 05:47:40;;;;;;;15.20;8.00;;;10.70;99.90;;;;;;4954542;28;20656;-80
2023/03/21 05:50:08;;;;;;;14.20;7.10;;;10.80;99.90;;;;;;4967302;28;20454;-83
2023/03/21 05:52:36;;;;;;;10.40;6.93;;;10.80;99.90;;;;;;4969910;28;20484;-79
2023/03/21 05:55:03;;;;;;;11.13;6.10;;;10.90;99.90;;;;;;4977345;28;20456;-80
2023/03/21 05:57:33;;;;;;;22.10;7.47;;;10.90;99.90;;;;;;4975168;28;20474;-80
2023/03/21 06:00:00;;;;;;;12.23;7.10;;;10.90;99.90;;;;;;4961483;28;20463;-80
2023/03/21 06:02:27;;;;;;;14.60;6.47;;;10.80;99.90;;;;;;4978716;28;20451;-80
2023/03/21 06:04:55;;;;;;;9.20;6.57;;;10.70;99.90;;;;;;4989466;28;20477;-81
2023/03/21 06:07:22;;;;;;;15.03;7.37;;;10.70;99.90;;;;;;4988016;28;20905;-80
2023/03/21 06:09:50;;;;;;;15.90;6.57;;;10.80;99.90;;;;;;4971434;28;20491;-80
2023/03/21 06:12:17;;;;;;;13.17;6.63;;;10.70;99.90;;;;;;4972611;28;20537;-80
2023/03/21 06:14:44;;;;;;;14.80;7.63;;;10.70;99.90;;;;;;4986444;28;20542;-83
2023/03/21 06:17:11;;;;;;;12.93;6.73;;;10.70;99.90;;;;;;4971157;28;20503;-82
2023/03/21 06:19:37;;;;;;;11.60;7.03;;;10.70;99.90;;;;;;4980018;28;20539;-83
2023/03/21 06:22:04;;;;;;;13.40;7.47;;;10.70;99.90;;;;;;4993337;28;20515;-83
2023/03/21 06:24:31;;;;;;;12.67;6.80;;;10.70;99.90;;;;;;4982582;28;20488;-81
2023/03/21 06:26:59;;;;;;;13.43;7.80;;;10.70;99.90;;;;;;4978917;28;20994;-81
2023/03/21 06:29:26;;;;;;;14.43;6.67;;;10.70;99.90;;;;;;4978431;28;20466;-82
2023/03/21 06:31:53;;;;;;;12.37;6.70;;;10.70;99.90;;;;;;4979761;28;20549;-83
2023/03/21 06:34:20;;;;;;;12.00;7.80;;;10.70;99.90;;;;;;4979796;28;20458;-83
2023/03/21 06:36:47;;;;;;;15.63;6.73;;;10.70;99.90;;;;;;4970357;28;20472;-81
2023/03/21 06:39:15;;;;;;;22.73;8.30;;;10.70;99.90;;;;;;4960108;28;20483;-83
2023/03/21 06:41:42;;;;;;;9.63;6.60;;;10.60;99.90;;;;;;4974324;28;20517;-82
2023/03/21 06:44:10;;;;;;;13.90;6.77;;;10.60;99.90;;;;;;4971164;28;20452;-82
2023/03/21 06:46:37;;;;;;;13.20;7.30;;;10.70;99.90;;;;;;4989595;28;20502;-82
2023/03/21 06:49:04;;;;;;;11.20;6.07;;;10.60;99.90;;;;;;4993512;28;20483;-79
2023/03/21 06:51:31;;;;;;;10.83;6.50;;;10.40;99.90;;;;;;4993345;28;20559;-82
2023/03/21 06:53:58;;;;;;;11.30;7.33;;;10.40;99.90;;;;;;4974324;28;20569;-81
2023/03/21 06:56:24;;;;;;;11.23;7.50;;;10.40;99.90;;;;;;4978550;28;20491;-82
2023/03/21 06:58:51;;;;;;;10.10;6.13;;;10.50;99.90;;;;;;4977700;28;20545;-83
2023/03/21 07:01:20;;;;;;;12.20;7.27;;;10.60;99.90;;;;;;4975421;28;20937;-84
2023/03/21 07:03:47;;;;;;;10.20;6.00;;;10.60;99.90;;;;;;4977763;28;20538;-83
2023/03/21 07:06:14;;;;;;;12.97;7.33;;;10.70;99.90;;;;;;4976840;28;20502;-81
2023/03/21 07:08:41;;;;;;;10.10;6.47;;;10.70;99.90;;;;;;4975366;28;20495;-82
2023/03/21 07:11:09;;;;;;;9.10;5.00;;;10.70;99.90;;;;;;4972237;28;20551;-82
2023/03/21 07:13:36;;;;;;;8.90;5.60;;;10.50;99.90;;;;;;4968090;28;20520;-82
2023/03/21 07:16:03;;;;;;;10.33;6.37;;;10.50;99.90;;;;;;4963813;28;20676;-82
2023/03/21 07:18:31;;;;;;;8.67;5.40;;;10.50;99.90;;;;;;4977308;28;20463;-82
2023/03/21 07:20:58;;;;;;;15.13;5.40;;;10.40;99.90;;;;;;4971646;28;20464;-82
2023/03/21 07:23:27;;;;;;;10.60;6.10;;;10.40;99.90;;;;;;4974334;28;20468;-81
2023/03/21 07:25:54;;;;;;;11.80;6.13;;;10.40;99.90;;;;;;4967350;28;20863;-82
2023/03/21 07:28:21;;;;;;;15.43;6.43;;;10.50;99.90;;;;;;4976833;28;20542;-82
2023/03/21 07:30:54;;;;;;;7.10;4.97;;;10.50;99.90;;;;;;4981851;28;20493;-84
2023/03/21 07:33:22;;;;;;;12.17;5.73;;;10.50;99.90;;;;;;4991607;28;20501;-82
2023/03/21 07:35:50;;;;;;;10.00;5.30;;;10.40;99.90;;;;;;4983840;28;20511;-81
2023/03/21 07:38:17;;;;;;;11.40;6.10;;;10.40;99.90;;;;;;4987394;28;20530;-80
2023/03/21 07:40:44;;;;;;;11.67;5.87;;;10.40;99.90;;;;;;4978149;28;20465;-81
2023/03/21 07:43:12;;;;;;;7.30;5.10;;;10.40;99.90;;;;;;4963265;28;20460;-81
2023/03/21 07:45:38;;;;;;;10.20;5.17;;;10.40;99.90;;;;;;4974349;28;20477;-81
2023/03/21 07:48:05;;;;;;;11.30;5.13;;;10.50;99.90;;;;;;4962115;28;20459;-80
2023/03/21 07:50:32;;;;;;;11.37;6.10;;;10.50;99.90;;;;;;4975216;28;20458;-83
2023/03/21 07:53:00;;;;;;;12.63;5.53;;;10.50;99.90;;;;;;4971833;28;20577;-81
2023/03/21 07:55:27;;;;;;;16.40;5.70;;;10.50;99.90;;;;;;4966347;28;20554;-81
2023/03/21 07:57:54;;;;;;;10.33;6.00;;;10.50;99.90;;;;;;4978468;28;20497;-80
2023/03/21 08:00:22;;;;;;;10.87;6.20;;;10.70;99.90;;;;;;4975465;28;21045;-79
2023/03/21 08:02:53;;;;;;;10.30;5.03;;;10.70;99.90;;;;;;4970024;28;20557;-80
2023/03/21 08:05:21;;;;;;;9.10;5.43;;;10.90;99.90;;;;;;4971570;28;20469;-81
2023/03/21 08:07:48;;;;;;;10.50;5.80;;;11.10;99.90;;;;;;4969977;28;20461;-78
2023/03/21 08:10:17;;;;;;;10.97;5.27;;;11.20;99.90;;;;;;4976073;28;21014;-78
2023/03/21 08:12:44;;;;;;;10.20;5.80;;;11.40;99.90;;;;;;4962489;28;20487;-79
2023/03/21 08:15:11;;;;;;;11.43;5.90;;;11.40;99.90;;;;;;4963409;28;20548;-81
2023/03/21 08:17:38;;;;;;;11.43;5.30;;;11.40;99.90;;;;;;4956203;28;20551;-79
2023/03/21 08:20:08;;;;;;;14.13;5.57;;;11.50;99.90;;;;;;4975328;28;20463;-79
2023/03/21 08:22:36;;;;;;;11.43;5.70;;;11.50;99.90;;;;;;4956382;28;20467;-78
2023/03/21 08:25:04;;;;;;;10.80;6.17;;;11.60;99.90;;;;;;4976205;28;20831;-80
2023/03/21 08:27:32;;;;;;;12.07;5.00;;;11.60;99.90;;;;;;4962523;28;20522;-79
2023/03/21 08:30:00;;;;;;;11.23;4.83;;;11.50;99.90;;;;;;4974523;28;21129;-79
2023/03/21 08:32:29;;;;;;;7.80;4.93;;;11.40;99.90;;;;;;4971704;28;20489;-79
2023/03/21 08:34:57;;;;;;;13.20;4.63;;;11.60;99.90;;;;;;4975313;28;20811;-78
2023/03/21 08:37:24;;;;;;;11.57;6.43;;;11.70;99.90;;;;;;4974596;28;20567;-80
2023/03/21 08:39:51;;;;;;;13.90;5.43;;;11.70;99.90;;;;;;4972035;28;20471;-78
2023/03/21 08:42:18;;;;;;;10.67;6.00;;;11.80;99.90;;;;;;4976267;28;20831;-79
2023/03/21 08:44:46;;;;;;;6.87;4.13;;;12.00;99.90;;;;;;4975320;28;20449;-78
2023/03/21 08:47:13;;;;;;;21.50;6.00;;;12.10;99.90;;;;;;4974222;28;21078;-81
2023/03/21 08:49:41;;;;;;;13.70;5.27;;;12.10;99.90;;;;;;4975027;28;20460;-80
2023/03/21 08:52:09;;;;;;;7.07;4.43;;;12.10;99.90;;;;;;4957415;28;20486;-80
2023/03/21 08:54:36;;;;;;;8.40;4.80;;;12.30;99.90;;;;;;4967996;28;20488;-78
2023/03/21 08:57:03;;;;;;;9.30;5.13;;;12.40;99.90;;;;;;4960146;28;20912;-79
2023/03/21 08:59:30;;;;;;;8.30;4.47;;;12.40;99.90;;;;;;4955999;29;20466;-81
2023/03/21 09:01:58;;;;;;;8.37;4.70;;;12.40;99.90;;;;;;4970733;28;20484;-80
2023/03/21 09:04:25;;;;;;;7.50;4.10;;;12.40;99.90;;;;;;4973037;28;20937;-79
2023/03/21 09:06:55;;;;;;;10.20;4.20;;;12.20;99.90;;;;;;4969715;28;20522;-79
2023/03/21 09:09:21;;;;;;;6.97;4.93;;;12.20;99.90;;;;;;4975364;28;20492;-78
2023/03/21 09:11:48;;;;;;;8.73;4.17;;;12.10;99.90;;;;;;4973856;28;20552;-79
2023/03/21 09:14:15;;;;;;;12.47;4.93;;;12.00;99.90;;;;;;4965564;28;20584;-80
2023/03/21 09:16:42;;;;;;;8.80;4.43;;;12.00;99.90;;;;;;4969290;28;20480;-80
2023/03/21 09:19:11;;;;;;;10.07;5.97;;;11.80;99.90;;;;;;4959406;28;20495;-80
2023/03/21 09:21:39;;;;;;;12.40;5.30;;;11.70;99.90;;;;;;4974991;28;20466;-81
2023/03/21 09:24:06;;;;;;;10.50;4.10;;;11.70;99.90;;;;;;4980187;28;21094;-80
2023/03/21 09:26:49;;;;;;;10.57;5.43;;;11.80;99.90;;;;;;4988749;28;20483;-78
2023/03/21 09:29:17;;;;;;;10.83;5.43;;;11.80;99.90;;;;;;4976554;28;20490;-82
2023/03/21 09:31:45;;;;;;;6.80;4.60;;;11.90;99.90;;;;;;4989175;28;20483;-81
2023/03/21 09:34:16;;;;;;;6.90;5.30;;;12.00;99.90;;;;;;4987818;28;20527;-81
2023/03/21 09:36:47;;;;;;;14.60;5.93;;;12.10;99.90;;;;;;4988986;28;20559;-81
2023/03/21 09:39:15;;;;;;;7.70;5.13;;;11.80;99.90;;;;;;4989819;28;20498;-80
2023/03/21 09:41:57;;;;;;;10.90;5.60;;;11.80;99.90;;;;;;4988182;28;20882;-82
2023/03/21 09:44:36;;;;;;;7.73;5.57;;;11.90;99.90;;;;;;4968612;28;20446;-82
2023/03/21 09:47:10;;;;;;;7.50;4.70;;;11.90;99.90;;;;;;4986195;28;20483;-83
2023/03/21 09:49:43;;;;;;;6.43;5.10;;;11.70;99.90;;;;;;4987034;28;20549;-81
2023/03/21 09:52:16;;;;;;;18.93;6.63;;;11.40;99.90;;;;;;4985100;28;20463;-80
2023/03/21 09:54:43;;;;;;;7.90;5.07;;;11.30;99.90;;;;;;4976262;28;20480;-85
2023/03/21 09:57:19;;;;;;;9.17;5.70;;;11.30;99.90;;;;;;4982997;28;21021;-80
2023/03/21 09:59:48;;;;;;;9.83;5.73;;;11.30;99.90;;;;;;4988232;28;20491;-83
2023/03/21 10:02:34;;;;;;;9.43;5.80;;;11.20;99.90;;;;;;4985737;28;20461;-80
2023/03/21 10:05:10;;;;;;;10.40;4.73;;;11.40;99.90;;;;;;4989859;28;20543;-81
2023/03/21 10:07:41;;;;;;;9.50;4.60;;;11.50;99.90;;;;;;4982832;28;20467;-81
2023/03/21 10:10:15;;;;;;;7.40;4.53;;;11.40;99.90;;;;;;4985108;28;20443;-82
2023/03/21 10:12:44;;;;;;;13.33;4.70;;;11.50;99.90;;;;;;4975677;28;20456;-83
2023/03/21 10:15:17;;;;;;;5.73;4.40;;;11.50;99.90;;;;;;4992203;28;20494;-83
2023/03/21 10:17:50;;;;;;;10.50;4.00;;;11.60;99.90;;;;;;4975759;28;20531;-82
2023/03/21 10:20:21;;;;;;;11.87;3.60;;;11.80;99.90;;;;;;4982730;28;20462;-83
2023/03/21 10:22:50;;;;;;;9.63;3.57;;;11.90;99.90;;;;;;4982153;28;20445;-81
2023/03/21 10:25:20;;;;;;;7.07;4.57;;;12.10;99.90;;;;;;4988292;28;20509;-84
2023/03/21 10:27:48;;;;;;;8.37;4.77;;;12.40;99.90;;;;;;4987953;28;20437;-85
2023/03/21 10:30:25;;;;;;;15.27;3.67;;;12.60;99.90;;;;;;4979828;28;20465;-82
2023/03/21 10:32:52;;;;;;;13.20;4.17;;;12.60;99.90;;;;;;4987228;28;20472;-82
2023/03/21 10:35:21;;;;;;;7.30;3.53;;;12.70;99.90;;;;;;4985973;28;20578;-80
2023/03/21 10:37:48;;;;;;;6.70;3.40;;;12.60;99.90;;;;;;4987386;28;20481;-84
2023/03/21 10:40:16;;;;;;;7.43;3.37;;;12.70;99.90;;;;;;4979993;28;20512;-83
2023/03/21 10:42:44;;;;;;;11.10;3.73;;;12.70;99.90;;;;;;4984273;28;20533;-84
2023/03/21 10:45:16;;;;;;;6.57;3.10;;;12.70;99.90;;;;;;4992651;28;20560;-84
2023/03/21 10:47:46;;;;;;;7.63;3.50;;;12.90;99.90;;;;;;4974858;28;20473;-85
2023/03/21 10:50:16;;;;;;;7.60;2.80;;;12.90;99.90;;;;;;4973785;28;20529;-83
2023/03/21 10:52:47;;;;;;;6.83;3.10;;;12.80;99.90;;;;;;4979654;28;20471;-86
2023/03/21 10:55:21;;;;;;;7.33;3.60;;;12.70;99.90;;;;;;4990336;28;20503;-85
2023/03/21 10:57:48;;;;;;;6.23;2.40;;;12.70;99.90;;;;;;4996333;28;20453;-85
2023/03/21 11:00:21;;;;;;;4.97;2.90;;;12.70;99.90;;;;;;4994082;28;20458;-84
2023/03/21 11:02:50;;;;;;;12.83;3.53;;;12.90;99.90;;;;;;4989064;28;20513;-82
2023/03/21 11:05:22;;;;;;;5.80;3.53;;;12.70;99.90;;;;;;4984897;28;20455;-84
2023/03/21 11:07:59;;;;;;;7.17;3.23;;;12.70;99.90;;;;;;4977763;28;20618;-82
2023/03/21 11:10:29;;;;;;;9.17;3.27;;;12.70;99.90;;;;;;4970840;28;20475;-82
2023/03/21 11:12:57;;;;;;;8.07;3.23;;;12.60;99.90;;;;;;4972233;28;20479;-82
2023/03/21 11:15:30;;;;;;;3.90;2.60;;;12.70;99.90;;;;;;4979876;28;20570;-82
2023/03/21 11:17:57;;;;;;;7.10;2.47;;;12.60;99.90;;;;;;4972687;28;20495;-84
2023/03/21 11:20:24;;;;;;;10.97;2.90;;;12.50;99.90;;;;;;4986231;28;20557;-82
2023/03/21 11:22:55;;;;;;;4.90;3.27;;;12.70;99.90;;;;;;4984558;28;20461;-84
2023/03/21 11:25:33;;;;;;;9.53;3.47;;;12.70;99.90;;;;;;4986199;28;20442;-82
2023/03/21 11:28:06;;;;;;;7.33;3.10;;;13.00;99.90;;;;;;4986337;28;20470;-83
2023/03/21 11:30:33;;;;;;;5.57;2.93;;;13.10;99.90;;;;;;4980491;28;20981;-82
2023/03/21 11:33:03;;;;;;;6.27;3.33;;;13.40;99.90;;;;;;4978326;28;20541;-82
2023/03/21 11:35:34;;;;;;;8.07;3.30;;;13.50;99.90;;;;;;4960937;28;20480;-83
2023/03/21 11:38:04;;;;;;;6.47;3.83;;;13.80;99.90;;;;;;4963227;28;20436;-82
2023/03/21 11:40:33;;;;;;;4.77;2.80;;;14.20;99.90;;;;;;4980585;28;20453;-81
2023/03/21 11:43:02;;;;;;;5.17;2.40;;;14.30;99.90;;;;;;4970207;28;20458;-82
2023/03/21 11:45:31;;;;;;;7.20;2.60;;;14.60;99.90;;;;;;4966544;28;20450;-82
2023/03/21 11:48:00;;;;;;;6.90;3.10;;;14.50;99.90;;;;;;4959525;28;20473;-83
2023/03/21 11:50:32;;;;;;;5.50;3.00;;;14.30;99.90;;;;;;4977693;28;20456;-82
2023/03/21 11:53:25;;;;;;;5.47;3.10;;;14.10;99.90;;;;;;4977250;28;20508;-82
2023/03/21 11:56:04;;;;;;;6.20;3.07;;;13.70;99.90;;;;;;4959262;28;20497;-82
2023/03/21 11:58:39;;;;;;;3.53;2.30;;;14.00;99.90;;;;;;4959630;28;20465;-83
2023/03/21 12:01:16;;;;;;;5.13;3.07;;;14.20;99.90;;;;;;4980597;28;20455;-82
2023/03/21 12:03:51;;;;;;;5.27;2.90;;;14.40;99.90;;;;;;4980765;28;20497;-82
2023/03/21 12:06:25;;;;;;;5.80;2.33;;;14.80;99.90;;;;;;4964299;28;20892;-82
2023/03/21 12:09:13;;;;;;;6.07;3.13;;;15.10;99.90;;;;;;4958312;28;20460;-83
2023/03/21 12:11:52;;;;;;;5.03;2.73;;;15.40;99.90;;;;;;4974786;28;20495;-82
2023/03/21 12:14:27;;;;;;;5.97;2.67;;;16.10;99.90;;;;;;4974679;28;21014;-83
2023/03/21 12:17:06;;;;;;;9.47;3.53;;;16.50;99.90;;;;;;4975624;28;20574;-82
2023/03/21 12:19:54;;;;;;;7.73;2.20;;;16.30;99.90;;;;;;4969116;28;20573;-82
2023/03/21 12:22:29;;;;;;;4.33;2.50;;;16.30;99.90;;;;;;4956671;28;20460;-82
2023/03/21 12:24:57;;;;;;;6.90;2.70;;;16.20;99.90;;;;;;4967913;28;20565;-83
2023/03/21 12:27:37;;;;;;;4.57;2.10;;;15.60;99.90;;;;;;4976741;28;20560;-82
2023/03/21 12:30:19;;;;;;;3.33;1.90;;;15.10;99.90;;;;;;4962522;28;20836;-83
2023/03/21 12:32:56;;;;;;;5.68;2.33;;;14.90;99.90;;;;;;4970036;28;20677;-81
2023/03/21 12:35:36;;;;;;;5.53;2.10;;;14.60;99.90;;;;;;4974513;28;20228;-82
2023/03/21 12:38:14;;;;;;;7.63;2.53;;;14.60;99.90;;;;;;4986565;28;20505;-82
2023/03/21 12:40:51;;;;;;;3.70;2.00;;;14.60;99.90;;;;;;4984800;28;20457;-81
2023/03/21 12:43:30;;;;;;;3.77;1.63;;;14.60;99.90;;;;;;4986842;28;20454;-84
2023/03/21 12:46:01;;;;;;;4.90;2.07;;;14.60;99.90;;;;;;4975257;28;20473;-80
2023/03/21 12:48:37;;;;;;;7.77;2.27;;;14.70;99.90;;;;;;4972449;28;20471;-83
2023/03/21 12:51:08;;;;;;;5.33;2.60;;;14.80;99.90;;;;;;4984779;28;20490;-81
2023/03/21 12:53:45;;;;;;;3.70;2.27;;;14.60;99.90;;;;;;4969461;28;20476;-83
2023/03/21 12:56:16;;;;;;;4.73;2.10;;;14.20;99.90;;;;;;4969793;28;20573;-83